createdAt,value
2017-12-24T00:00:14.493Z,18.67
2017-12-24T00:02:40.880Z,18.97
2017-12-24T00:05:07.232Z,17.40
2017-12-24T00:07:33.582Z,18.50
2017-12-24T00:09:59.898Z,18.37
2017-12-24T00:12:26.992Z,18.03
2017-12-24T00:14:53.324Z,18.00
2017-12-24T00:17:19.683Z,18.83
2017-12-24T00:19:46.033Z,18.43
2017-12-24T00:22:12.357Z,21.00
2017-12-24T00:24:38.702Z,18.37
2017-12-24T00:27:04.999Z,16.70
2017-12-24T00:29:31.335Z,18.53
2017-12-24T00:31:57.644Z,18.83
2017-12-24T00:34:23.956Z,20.07
2017-12-24T00:36:50.312Z,20.47
2017-12-24T00:39:16.630Z,19.00
2017-12-24T00:41:42.970Z,18.87
2017-12-24T00:44:09.300Z,18.10
2017-12-24T00:46:35.628Z,19.43
2017-12-24T00:49:01.967Z,19.97
2017-12-24T00:51:28.290Z,17.90
2017-12-24T00:53:54.627Z,20.27
2017-12-24T00:56:20.935Z,21.00
2017-12-24T00:58:47.260Z,21.03
2017-12-24T01:01:14.305Z,19.00
2017-12-24T01:03:40.636Z,18.97
2017-12-24T01:06:07.690Z,19.87
2017-12-24T01:08:34.247Z,18.10
2017-12-24T01:11:00.579Z,19.20
2017-12-24T01:13:26.898Z,19.90
2017-12-24T01:15:53.232Z,18.37
2017-12-24T01:18:19.608Z,18.87
2017-12-24T01:20:45.916Z,18.27
2017-12-24T01:23:12.276Z,18.13
2017-12-24T01:25:39.356Z,18.27
2017-12-24T01:28:05.732Z,18.50
2017-12-24T01:30:32.064Z,19.00
2017-12-24T01:32:58.381Z,19.80
2017-12-24T01:35:24.703Z,20.20
2017-12-24T01:37:51.018Z,19.73
2017-12-24T01:40:17.353Z,20.03
2017-12-24T01:42:43.678Z,19.70
2017-12-24T01:45:10.030Z,20.07
2017-12-24T01:47:48.486Z,19.67
2017-12-24T01:50:15.557Z,17.40
2017-12-24T01:52:42.599Z,19.67
2017-12-24T01:55:08.942Z,18.30
2017-12-24T01:57:35.267Z,17.77
2017-12-24T02:00:01.659Z,18.40
2017-12-24T02:02:27.988Z,18.13
2017-12-24T02:04:54.376Z,17.23
2017-12-24T02:07:20.773Z,17.30
2017-12-24T02:09:47.859Z,15.83
2017-12-24T02:12:14.228Z,15.43
2017-12-24T02:14:40.581Z,17.60
2017-12-24T02:17:07.642Z,15.87
2017-12-24T02:19:33.988Z,14.40
2017-12-24T02:22:00.326Z,17.40
2017-12-24T02:24:26.660Z,17.30
2017-12-24T02:26:53.033Z,15.10
2017-12-24T02:29:19.337Z,16.03
2017-12-24T02:31:45.677Z,16.70
2017-12-24T02:34:12.016Z,15.17
2017-12-24T02:36:38.385Z,15.23
2017-12-24T02:39:04.731Z,15.47
2017-12-24T02:41:31.073Z,16.03
2017-12-24T02:43:57.383Z,16.60
2017-12-24T02:46:23.714Z,17.43
2017-12-24T02:48:50.025Z,17.20
2017-12-24T02:51:16.373Z,18.80
2017-12-24T02:53:43.432Z,17.83
2017-12-24T02:56:09.775Z,18.67
2017-12-24T02:58:36.089Z,20.27
2017-12-24T03:01:02.404Z,20.67
2017-12-24T03:03:28.734Z,19.13
2017-12-24T03:05:55.049Z,19.80
2017-12-24T03:08:22.320Z,19.00
2017-12-24T03:10:48.804Z,17.70
2017-12-24T03:13:15.136Z,16.77
2017-12-24T03:15:41.490Z,18.50
2017-12-24T03:18:08.560Z,18.97
2017-12-24T03:20:35.622Z,17.30
2017-12-24T03:23:01.961Z,16.87
2017-12-24T03:25:28.269Z,15.87
2017-12-24T03:27:54.623Z,14.53
2017-12-24T03:30:20.953Z,14.30
2017-12-24T03:32:47.294Z,14.77
2017-12-24T03:35:13.618Z,15.37
2017-12-24T03:37:39.935Z,15.70
2017-12-24T03:40:06.283Z,14.80
2017-12-24T03:42:32.628Z,14.97
2017-12-24T03:44:58.982Z,14.13
2017-12-24T03:47:25.294Z,14.90
2017-12-24T03:49:51.644Z,14.60
2017-12-24T03:52:17.961Z,14.20
2017-12-24T03:54:45.054Z,14.67
2017-12-24T03:57:11.406Z,13.73
2017-12-24T03:59:37.741Z,15.10
2017-12-24T04:02:04.069Z,13.00
2017-12-24T04:04:30.414Z,12.60
2017-12-24T04:06:56.759Z,11.80
2017-12-24T04:09:23.879Z,13.63
2017-12-24T04:11:50.206Z,11.67
2017-12-24T04:14:16.541Z,10.40
2017-12-24T04:16:42.870Z,11.63
2017-12-24T04:19:09.248Z,11.10
2017-12-24T04:21:36.325Z,10.93
2017-12-24T04:24:02.676Z,10.80
2017-12-24T04:26:29.042Z,11.17
2017-12-24T04:28:55.343Z,10.90
2017-12-24T04:31:21.684Z,9.97
2017-12-24T04:33:48.011Z,11.13
2017-12-24T04:36:14.331Z,10.50
2017-12-24T04:38:40.660Z,10.77
2017-12-24T04:41:07.010Z,10.47
2017-12-24T04:43:33.323Z,9.30
2017-12-24T04:45:59.690Z,9.57
2017-12-24T04:48:26.793Z,9.33
2017-12-24T04:50:53.148Z,10.43
2017-12-24T04:53:19.510Z,9.40
2017-12-24T04:55:45.848Z,8.90
2017-12-24T04:58:12.165Z,8.10
2017-12-24T05:00:38.499Z,9.07
2017-12-24T05:03:04.818Z,8.73
2017-12-24T05:05:31.162Z,8.53
2017-12-24T05:07:57.499Z,9.63
2017-12-24T05:10:23.843Z,9.73
2017-12-24T05:12:50.214Z,7.63
2017-12-24T05:15:16.545Z,9.30
2017-12-24T05:17:42.888Z,8.77
2017-12-24T05:20:09.207Z,8.00
2017-12-24T05:22:35.534Z,6.90
2017-12-24T05:25:01.844Z,8.73
2017-12-24T05:27:28.190Z,7.97
2017-12-24T05:29:54.519Z,8.23
2017-12-24T05:32:20.848Z,7.37
2017-12-24T05:34:47.180Z,7.53
2017-12-24T05:37:13.517Z,8.80
2017-12-24T05:39:39.836Z,8.70
2017-12-24T05:42:06.168Z,7.80
2017-12-24T05:44:32.504Z,7.23
2017-12-24T05:46:58.823Z,8.13
2017-12-24T05:49:25.157Z,7.47
2017-12-24T05:51:51.495Z,7.50
2017-12-24T05:54:17.822Z,7.70
2017-12-24T05:56:44.166Z,7.80
2017-12-24T05:59:10.493Z,8.20
2017-12-24T06:01:36.800Z,8.10
2017-12-24T06:04:03.109Z,8.40
2017-12-24T06:06:30.156Z,7.90
2017-12-24T06:08:57.223Z,8.03
2017-12-24T06:11:23.570Z,7.47
2017-12-24T06:13:49.897Z,8.13
2017-12-24T06:16:16.243Z,7.40
2017-12-24T06:18:42.570Z,7.70
2017-12-24T06:21:08.955Z,8.80
2017-12-24T06:23:36.021Z,6.80
2017-12-24T06:26:02.332Z,8.03
2017-12-24T06:28:29.405Z,7.87
2017-12-24T06:30:55.711Z,7.20
2017-12-24T06:33:22.072Z,8.43
2017-12-24T06:35:48.383Z,8.00
2017-12-24T06:38:14.716Z,7.80
2017-12-24T06:40:41.822Z,7.30
2017-12-24T06:43:08.152Z,7.33
2017-12-24T06:45:34.469Z,6.30
2017-12-24T06:48:00.814Z,7.17
2017-12-24T06:50:27.110Z,6.43
2017-12-24T06:52:53.468Z,6.77
2017-12-24T06:55:19.768Z,5.77
2017-12-24T06:57:46.075Z,7.03
2017-12-24T07:00:12.420Z,6.40
2017-12-24T07:02:39.496Z,6.60
2017-12-24T07:05:05.826Z,6.00
2017-12-24T07:07:32.160Z,5.27
2017-12-24T07:09:58.529Z,6.40
2017-12-24T07:12:25.591Z,5.97
2017-12-24T07:14:52.669Z,5.80
2017-12-24T07:17:18.979Z,6.07
2017-12-24T07:19:45.299Z,5.37
2017-12-24T07:22:11.614Z,5.37
2017-12-24T07:24:38.681Z,6.13
2017-12-24T07:27:05.919Z,6.03
2017-12-24T07:29:32.979Z,6.07
2017-12-24T07:31:59.291Z,6.70
2017-12-24T07:34:26.354Z,6.10
2017-12-24T07:36:52.682Z,6.30
2017-12-24T07:39:19.973Z,8.40
2017-12-24T07:41:46.278Z,5.80
2017-12-24T07:44:12.586Z,6.33
2017-12-24T07:46:38.932Z,6.30
2017-12-24T07:49:05.262Z,5.30
2017-12-24T07:51:31.601Z,6.43
2017-12-24T07:53:57.928Z,6.10
2017-12-24T07:56:24.255Z,5.87
2017-12-24T07:58:50.581Z,6.07
2017-12-24T08:01:16.915Z,5.93
2017-12-24T08:03:43.220Z,6.00
2017-12-24T08:06:10.288Z,6.80
2017-12-24T08:08:36.610Z,7.37
2017-12-24T08:11:02.958Z,5.97
2017-12-24T08:13:29.274Z,6.13
2017-12-24T08:15:55.610Z,6.00
2017-12-24T08:18:21.930Z,6.00
2017-12-24T08:20:48.249Z,6.10
2017-12-24T08:23:15.320Z,5.70
2017-12-24T08:25:41.643Z,6.50
2017-12-24T08:28:07.978Z,5.83
2017-12-24T08:30:34.302Z,7.53
2017-12-24T08:33:00.638Z,6.90
2017-12-24T08:35:26.952Z,6.67
2017-12-24T08:37:54.034Z,6.30
2017-12-24T08:40:20.365Z,6.40
2017-12-24T08:42:46.715Z,6.60
2017-12-24T08:45:13.067Z,7.53
2017-12-24T08:47:39.414Z,7.40
2017-12-24T08:50:06.484Z,7.67
2017-12-24T08:52:32.825Z,8.13
2017-12-24T08:54:59.206Z,8.30
2017-12-24T08:57:25.532Z,7.70
2017-12-24T08:59:51.858Z,7.80
2017-12-24T09:02:18.201Z,7.57
2017-12-24T09:04:44.523Z,8.23
2017-12-24T09:07:10.871Z,9.00
2017-12-24T09:09:37.253Z,8.13
2017-12-24T09:12:03.574Z,9.23
2017-12-24T09:14:29.918Z,8.60
2017-12-24T09:16:56.276Z,8.50
2017-12-24T09:19:23.378Z,10.00
2017-12-24T09:21:49.689Z,9.90
2017-12-24T09:24:16.013Z,10.80
2017-12-24T09:26:43.094Z,8.30
2017-12-24T09:29:09.408Z,9.63
2017-12-24T09:31:36.439Z,9.97
2017-12-24T09:34:03.540Z,9.40
2017-12-24T09:36:29.871Z,9.30
2017-12-24T09:38:56.193Z,9.40
2017-12-24T09:41:22.526Z,10.30
2017-12-24T09:43:48.837Z,9.30
2017-12-24T09:46:15.168Z,11.00
2017-12-24T09:48:41.478Z,9.97
2017-12-24T09:51:07.821Z,10.33
2017-12-24T09:53:34.134Z,11.20
2017-12-24T09:56:01.207Z,10.43
2017-12-24T09:58:27.528Z,10.00
2017-12-24T10:00:53.856Z,9.53
2017-12-24T10:03:20.188Z,9.47
2017-12-24T10:05:46.523Z,10.40
2017-12-24T10:08:12.834Z,10.30
2017-12-24T10:10:39.165Z,10.17
2017-12-24T10:13:06.210Z,10.10
2017-12-24T10:15:33.277Z,9.10
2017-12-24T10:17:59.593Z,10.60
2017-12-24T10:20:25.959Z,8.80
2017-12-24T10:22:52.266Z,9.87
2017-12-24T10:25:18.616Z,10.03
2017-12-24T10:27:44.965Z,8.77
2017-12-24T10:30:11.308Z,9.83
2017-12-24T10:32:37.650Z,9.47
2017-12-24T10:35:04.767Z,9.57
2017-12-24T10:37:31.101Z,9.53
2017-12-24T10:39:57.421Z,8.80
2017-12-24T10:42:24.519Z,9.77
2017-12-24T10:44:51.582Z,8.43
2017-12-24T10:47:17.921Z,10.10
2017-12-24T10:49:44.249Z,10.77
2017-12-24T10:52:10.592Z,9.63
2017-12-24T10:54:36.969Z,11.00
2017-12-24T10:57:03.627Z,11.37
2017-12-24T10:59:30.800Z,10.93
2017-12-24T11:01:57.104Z,10.90
2017-12-24T11:04:24.167Z,11.40
2017-12-24T11:06:51.206Z,10.10
2017-12-24T11:09:18.278Z,10.70
2017-12-24T11:11:44.620Z,9.03
2017-12-24T11:14:10.965Z,10.23
2017-12-24T11:16:37.314Z,9.80
2017-12-24T11:19:03.689Z,10.00
2017-12-24T11:21:30.049Z,11.23
2017-12-24T11:23:56.401Z,11.27
2017-12-24T11:26:22.757Z,10.53
2017-12-24T11:28:49.842Z,13.07
2017-12-24T11:31:16.163Z,12.20
2017-12-24T11:33:42.496Z,11.90
2017-12-24T11:36:08.825Z,13.20
2017-12-24T11:38:35.160Z,14.40
2017-12-24T11:41:01.483Z,14.63
2017-12-24T11:43:27.844Z,14.10
2017-12-24T11:45:54.169Z,13.60
2017-12-24T11:48:20.499Z,15.13
2017-12-24T11:50:47.138Z,15.33
2017-12-24T11:53:13.586Z,15.70
2017-12-24T11:55:40.669Z,15.10
2017-12-24T11:58:07.013Z,15.07
2017-12-24T12:00:34.159Z,19.03
2017-12-24T12:03:00.496Z,18.07
2017-12-24T12:05:26.836Z,19.57
2017-12-24T12:07:53.154Z,20.63
2017-12-24T12:10:20.216Z,19.80
2017-12-24T12:12:46.553Z,20.90
2017-12-24T12:15:12.884Z,20.73
2017-12-24T12:17:39.206Z,23.40
2017-12-24T12:20:05.544Z,24.07
2017-12-24T12:22:31.851Z,24.50
2017-12-24T12:24:58.203Z,24.17
2017-12-24T12:27:24.526Z,24.20
2017-12-24T12:29:50.856Z,24.77
2017-12-24T12:32:17.238Z,23.90
2017-12-24T12:34:43.590Z,22.70
2017-12-24T12:37:10.651Z,21.83
2017-12-24T12:39:37.720Z,22.43
2017-12-24T12:42:04.051Z,21.00
2017-12-24T12:44:30.367Z,22.37
2017-12-24T12:46:57.432Z,23.90
2017-12-24T12:49:24.078Z,22.23
2017-12-24T12:51:50.415Z,23.20
2017-12-24T12:54:16.719Z,23.30
2017-12-24T12:56:43.068Z,21.00
2017-12-24T12:59:09.397Z,21.27
2017-12-24T13:01:35.746Z,21.47
2017-12-24T13:04:02.229Z,21.87
2017-12-24T13:06:36.088Z,24.33
2017-12-24T13:09:02.426Z,24.20
2017-12-24T13:11:28.792Z,22.73
2017-12-24T13:13:55.852Z,26.10
2017-12-24T13:16:22.996Z,25.97
2017-12-24T13:18:49.348Z,27.17
2017-12-24T13:21:15.709Z,27.10
2017-12-24T13:23:42.069Z,24.60
2017-12-24T13:26:09.144Z,23.10
2017-12-24T13:28:35.477Z,24.50
2017-12-24T13:31:01.793Z,22.70
2017-12-24T13:33:28.873Z,24.57
2017-12-24T13:35:55.207Z,23.83
2017-12-24T13:38:21.543Z,21.73
2017-12-24T13:40:47.858Z,22.73
2017-12-24T13:43:14.246Z,19.77
2017-12-24T13:45:40.553Z,19.80
2017-12-24T13:48:06.906Z,19.17
2017-12-24T13:50:33.269Z,20.20
2017-12-24T13:52:59.595Z,22.50
2017-12-24T13:55:25.933Z,20.00
2017-12-24T13:57:52.385Z,20.93
2017-12-24T14:00:18.765Z,19.80
2017-12-24T14:02:45.881Z,20.97
2017-12-24T14:05:12.242Z,19.30
2017-12-24T14:07:38.597Z,18.73
2017-12-24T14:10:04.938Z,18.30
2017-12-24T14:12:31.271Z,18.63
2017-12-24T14:14:57.597Z,17.37
2017-12-24T14:17:23.918Z,18.00
2017-12-24T14:19:50.978Z,17.23
2017-12-24T14:22:17.296Z,18.57
2017-12-24T14:24:43.646Z,17.97
2017-12-24T14:27:09.971Z,18.33
2017-12-24T14:29:36.292Z,16.60
2017-12-24T14:32:02.609Z,16.67
2017-12-24T14:34:29.689Z,17.73
2017-12-24T14:36:56.024Z,16.47
2017-12-24T14:39:22.333Z,17.03
2017-12-24T14:41:48.669Z,15.80
2017-12-24T14:44:15.004Z,16.63
2017-12-24T14:46:41.344Z,16.67
2017-12-24T14:49:07.689Z,15.50
2017-12-24T14:51:34.003Z,15.47
2017-12-24T14:54:00.407Z,14.30
2017-12-24T14:56:27.444Z,14.13
2017-12-24T14:58:54.536Z,15.60
2017-12-24T15:01:20.893Z,16.00
2017-12-24T15:03:47.244Z,14.70
2017-12-24T15:06:13.574Z,15.33
2017-12-24T15:08:39.940Z,14.87
2017-12-24T15:11:06.290Z,13.70
2017-12-24T15:13:32.654Z,15.07
2017-12-24T15:15:58.995Z,15.17
2017-12-24T15:18:26.069Z,15.37
2017-12-24T15:20:52.471Z,15.83
2017-12-24T15:23:18.833Z,14.53
2017-12-24T15:25:45.176Z,14.70
2017-12-24T15:28:11.495Z,15.20
2017-12-24T15:30:37.820Z,15.53
2017-12-24T15:33:04.140Z,16.27
2017-12-24T15:35:30.487Z,15.60
2017-12-24T15:37:56.864Z,15.80
2017-12-24T15:40:23.234Z,15.10
2017-12-24T15:42:49.574Z,16.37
2017-12-24T15:45:15.954Z,16.87
2017-12-24T15:47:42.313Z,15.80
2017-12-24T15:50:09.393Z,17.53
2017-12-24T15:52:35.706Z,16.17
2017-12-24T15:55:02.769Z,16.90
2017-12-24T15:57:29.122Z,15.70
2017-12-24T15:59:55.441Z,15.33
2017-12-24T16:02:21.774Z,16.97
2017-12-24T16:04:48.110Z,17.30
2017-12-24T16:07:14.453Z,17.03
2017-12-24T16:09:40.806Z,16.73
2017-12-24T16:12:07.136Z,18.73
2017-12-24T16:14:33.471Z,16.53
2017-12-24T16:16:59.806Z,16.97
2017-12-24T16:19:26.873Z,17.83
2017-12-24T16:21:53.932Z,17.50
2017-12-24T16:24:20.289Z,16.67
2017-12-24T16:26:46.620Z,18.43
2017-12-24T16:29:12.932Z,15.00
2017-12-24T16:31:39.271Z,17.00
2017-12-24T16:34:05.630Z,17.90
2017-12-24T16:36:31.955Z,17.47
2017-12-24T16:38:58.272Z,17.20
2017-12-24T16:41:24.645Z,16.70
2017-12-24T16:43:51.721Z,15.97
2017-12-24T16:46:18.766Z,16.20
2017-12-24T16:48:45.098Z,16.63
2017-12-24T16:51:11.474Z,15.47
2017-12-24T16:53:37.848Z,16.40
2017-12-24T16:56:04.293Z,15.83
2017-12-24T16:58:30.684Z,15.73
2017-12-24T17:00:57.007Z,16.90
2017-12-24T17:03:23.353Z,16.80
2017-12-24T17:05:49.683Z,16.37
2017-12-24T17:08:16.018Z,17.40
2017-12-24T17:10:42.328Z,15.57
2017-12-24T17:13:08.659Z,15.53
2017-12-24T17:15:34.987Z,16.27
2017-12-24T17:18:02.110Z,17.00
2017-12-24T17:20:35.205Z,16.30
2017-12-24T17:23:01.532Z,16.17
2017-12-24T17:25:27.841Z,16.80
2017-12-24T17:27:54.172Z,16.63
2017-12-24T17:30:20.527Z,17.20
2017-12-24T17:32:46.847Z,16.30
2017-12-24T17:35:13.236Z,18.07
2017-12-24T17:37:39.648Z,16.67
2017-12-24T17:40:05.977Z,18.17
2017-12-24T17:42:32.334Z,16.97
2017-12-24T17:44:58.661Z,18.33
2017-12-24T17:47:24.984Z,15.60
2017-12-24T17:49:51.314Z,18.23
2017-12-24T17:52:17.626Z,18.43
2017-12-24T17:54:43.957Z,18.47
2017-12-24T17:57:10.270Z,17.07
2017-12-24T17:59:36.601Z,16.87
2017-12-24T18:02:02.940Z,17.13
2017-12-24T18:04:29.299Z,18.23
2017-12-24T18:06:56.367Z,16.63
2017-12-24T18:09:23.467Z,18.40
2017-12-24T18:11:50.580Z,18.30
2017-12-24T18:14:16.942Z,17.67
2017-12-24T18:16:43.246Z,17.40
2017-12-24T18:19:09.573Z,17.73
2017-12-24T18:21:35.892Z,17.77
2017-12-24T18:24:02.213Z,16.40
2017-12-24T18:26:28.530Z,18.73
2017-12-24T18:28:55.600Z,17.40
2017-12-24T18:31:21.907Z,18.53
2017-12-24T18:33:48.229Z,18.07
2017-12-24T18:36:15.292Z,18.70
2017-12-24T18:38:42.357Z,18.23
2017-12-24T18:41:08.688Z,18.00
2017-12-24T18:43:35.009Z,18.97
2017-12-24T18:46:01.347Z,18.33
2017-12-24T18:48:27.670Z,20.77
2017-12-24T18:50:53.988Z,20.33
2017-12-24T18:53:21.031Z,19.83
2017-12-24T18:55:47.355Z,21.17
2017-12-24T18:58:13.676Z,20.10
2017-12-24T19:00:40.017Z,20.93
2017-12-24T19:03:06.313Z,21.67
2017-12-24T19:05:32.687Z,21.30
2017-12-24T19:07:59.737Z,21.53
2017-12-24T19:10:26.076Z,20.57
2017-12-24T19:12:52.401Z,20.90
2017-12-24T19:15:19.492Z,21.40
2017-12-24T19:17:45.820Z,22.00
2017-12-24T19:20:12.152Z,21.47
2017-12-24T19:22:38.487Z,20.43
2017-12-24T19:25:04.778Z,20.60
2017-12-24T19:27:31.203Z,20.53
2017-12-24T19:29:57.582Z,19.80
2017-12-24T19:32:23.890Z,22.50
2017-12-24T19:34:50.214Z,22.20
2017-12-24T19:37:16.602Z,22.20
2017-12-24T19:39:42.970Z,21.73
2017-12-24T19:42:09.307Z,23.13
2017-12-24T19:44:35.645Z,21.13
2017-12-24T19:47:01.964Z,22.20
2017-12-24T19:49:28.300Z,22.00
2017-12-24T19:51:54.636Z,23.63
2017-12-24T19:54:20.956Z,23.03
2017-12-24T19:56:47.333Z,22.30
2017-12-24T19:59:13.705Z,22.77
2017-12-24T20:01:40.108Z,25.03
2017-12-24T20:04:07.242Z,23.30
2017-12-24T20:06:33.618Z,24.50
2017-12-24T20:09:00.006Z,24.20
2017-12-24T20:11:26.406Z,24.63
2017-12-24T20:13:52.740Z,28.80
2017-12-24T20:16:19.119Z,25.33
2017-12-24T20:18:45.481Z,25.90
2017-12-24T20:21:11.850Z,25.67
2017-12-24T20:23:38.212Z,25.07
2017-12-24T20:26:04.573Z,26.23
2017-12-24T20:28:30.954Z,25.53
2017-12-24T20:30:57.302Z,25.00
2017-12-24T20:33:23.699Z,25.80
2017-12-24T20:35:50.010Z,25.60
2017-12-24T20:38:16.374Z,26.83
2017-12-24T20:40:42.760Z,28.13
2017-12-24T20:43:09.120Z,27.83
2017-12-24T20:45:35.503Z,27.10
2017-12-24T20:48:01.963Z,27.00
2017-12-24T20:50:28.337Z,27.73
2017-12-24T20:52:54.696Z,25.90
2017-12-24T20:55:21.817Z,25.63
2017-12-24T20:57:48.170Z,27.13
2017-12-24T21:00:14.530Z,25.70
2017-12-24T21:02:40.906Z,25.70
2017-12-24T21:05:07.293Z,27.27
2017-12-24T21:07:33.633Z,27.23
2017-12-24T21:10:00.020Z,25.97
2017-12-24T21:12:26.377Z,28.10
2017-12-24T21:14:52.706Z,28.10
2017-12-24T21:17:19.070Z,25.80
2017-12-24T21:19:45.440Z,25.50
2017-12-24T21:22:11.807Z,25.80
2017-12-24T21:24:38.205Z,25.60
2017-12-24T21:27:04.580Z,26.67
2017-12-24T21:29:30.921Z,26.27
2017-12-24T21:31:57.298Z,24.43
2017-12-24T21:34:24.452Z,25.00
2017-12-24T21:36:51.561Z,25.90
2017-12-24T21:39:17.864Z,25.20
2017-12-24T21:41:44.244Z,24.47
2017-12-24T21:44:10.564Z,24.90
2017-12-24T21:46:36.890Z,25.67
2017-12-24T21:49:03.271Z,22.53
2017-12-24T21:51:29.610Z,23.57
2017-12-24T21:53:55.959Z,24.63
2017-12-24T21:56:22.342Z,23.17
2017-12-24T21:58:49.399Z,23.63
2017-12-24T22:01:15.772Z,23.50
2017-12-24T22:03:42.162Z,22.73
2017-12-24T22:06:08.528Z,23.10
2017-12-24T22:08:34.915Z,22.20
2017-12-24T22:11:01.275Z,22.47
2017-12-24T22:13:27.587Z,22.20
2017-12-24T22:15:54.664Z,21.63
2017-12-24T22:18:20.968Z,21.10
2017-12-24T22:20:48.061Z,22.00
2017-12-24T22:23:14.418Z,24.37
2017-12-24T22:25:40.743Z,21.83
2017-12-24T22:28:07.065Z,20.87
2017-12-24T22:30:33.427Z,21.40
2017-12-24T22:32:59.794Z,21.93
2017-12-24T22:35:26.172Z,21.53
2017-12-24T22:37:52.589Z,21.30
2017-12-24T22:40:18.947Z,20.90
2017-12-24T22:42:45.326Z,21.33
2017-12-24T22:45:11.767Z,21.27
2017-12-24T22:47:38.137Z,22.40
2017-12-24T22:50:04.523Z,20.90
2017-12-24T22:52:30.882Z,24.10
2017-12-24T22:54:57.257Z,22.13
2017-12-24T22:57:24.383Z,21.77
2017-12-24T22:59:50.723Z,22.67
2017-12-24T23:02:17.851Z,23.00
2017-12-24T23:04:44.239Z,23.87
2017-12-24T23:07:10.625Z,23.20
2017-12-24T23:09:37.009Z,24.20
2017-12-24T23:12:03.387Z,22.90
2017-12-24T23:14:29.732Z,25.30
2017-12-24T23:16:56.822Z,24.80
2017-12-24T23:19:23.234Z,26.07
2017-12-24T23:21:49.582Z,25.80
2017-12-24T23:24:15.917Z,26.87
2017-12-24T23:26:42.268Z,26.93
2017-12-24T23:29:08.649Z,27.20
2017-12-24T23:31:35.754Z,29.00
2017-12-24T23:34:02.097Z,27.73
2017-12-24T23:36:28.456Z,28.40
2017-12-24T23:38:54.814Z,29.97
2017-12-24T23:41:21.138Z,28.30
2017-12-24T23:43:47.489Z,28.47
2017-12-24T23:46:13.817Z,30.10
2017-12-24T23:48:40.169Z,29.80
2017-12-24T23:51:06.518Z,28.83
2017-12-24T23:53:40.547Z,28.10
2017-12-24T23:56:07.676Z,27.73
2017-12-24T23:58:34.046Z,29.60
